Time;durP1;ratioP1;P1;durP2;ratioP2;P2;SDS_P1;SDS_P2;PMS_P1;PMS_P2;Temp;Humidity;BMP_temperature;BMP_pressure;BME280_temperature;BME280_humidity;BME280_pressure;Samples;Min_cycle;Max_cycle;Signal;HPM_P1;HPM_P2
2022/09/06 00:00:33;;;;;;;;;;;;;;;18.51;53.66;101122.41;5090555;28;19959;-80
2022/09/06 00:02:59;;;;;;;;;;;;;;;18.50;54.75;101133.00;5090472;28;19923;-80
2022/09/06 00:05:26;;;;;;;;;;;;;;;18.49;54.20;101137.41;5091081;28;19912;-80
2022/09/06 00:07:51;;;;;;;;;;;;;;;18.51;54.13;101132.09;5090573;28;19919;-80
2022/09/06 00:10:16;;;;;;;;;;;;;;;18.51;53.21;101126.81;5025433;28;1840967;-80
2022/09/06 00:12:42;;;;;;;;;;;;;;;18.52;54.24;101128.50;5091582;28;19916;-80
2022/09/06 00:15:07;;;;;;;;;;;;;;;18.51;54.68;101137.34;5090997;28;20464;-80
2022/09/06 00:17:33;;;;;;;;;;;;;;;18.53;53.94;101138.97;5091732;28;19923;-80
2022/09/06 00:19:58;;;;;;;;;;;;;;;18.58;53.03;101146.63;5100626;28;19916;-80
2022/09/06 00:22:23;;;;;;;;;;;;;;;18.55;53.99;101159.94;5089960;28;20018;-80
2022/09/06 00:24:49;;;;;;;;;;;;;;;18.55;58.62;101192.38;5105261;28;19939;-80
2022/09/06 00:27:14;;;;;;;;;;;;;;;18.49;61.21;101221.59;5096726;28;19920;-80
2022/09/06 00:29:39;;;;;;;;;;;;;;;18.51;60.66;101219.72;5092279;28;19942;-80
2022/09/06 00:32:05;;;;;;;;;;;;;;;18.47;63.14;101239.25;5091831;28;20293;-80
2022/09/06 00:34:30;;;;;;;;;;;;;;;18.50;61.63;101239.09;5090387;28;19916;-80
2022/09/06 00:36:56;;;;;;;;;;;;;;;18.59;60.26;101243.06;5098282;28;20422;-80
2022/09/06 00:39:21;;;;;;;;;;;;;;;18.58;60.27;101244.84;5094327;28;20392;-80
2022/09/06 00:41:46;;;;;;;;;;;;;;;18.57;61.34;101256.28;5095165;28;20010;-80
2022/09/06 00:44:12;;;;;;;;;;;;;;;18.54;59.62;101271.38;5090738;28;19916;-80
2022/09/06 00:46:38;;;;;;;;;;;;;;;18.55;60.60;101257.28;5090905;28;19928;-80
2022/09/06 00:49:14;;;;;;;;;;;;;;;18.58;60.26;101254.50;5090408;28;20477;-80
2022/09/06 00:51:40;;;;;;;;;;;;;;;18.50;61.64;101256.66;5090118;28;19920;-80
2022/09/06 00:54:06;;;;;;;;;;;;;;;18.50;62.87;101259.28;5090845;28;20288;-80
2022/09/06 00:56:34;;;;;;;;;;;;;;;18.43;64.16;101248.16;5091402;28;19919;-80
2022/09/06 00:58:59;;;;;;;;;;;;;;;18.44;66.22;101238.50;5090390;28;20372;-80
2022/09/06 01:01:25;;;;;;;;;;;;;;;18.42;69.04;101232.47;5090627;28;19916;-80
2022/09/06 01:03:50;;;;;;;;;;;;;;;18.39;67.34;101236.06;5090830;28;19916;-80
2022/09/06 01:06:19;;;;;;;;;;;;;;;18.41;66.94;101220.22;5091321;28;19916;-80
2022/09/06 01:08:44;;;;;;;;;;;;;;;18.40;66.97;101227.25;5091665;28;20368;-80
2022/09/06 01:11:09;;;;;;;;;;;;;;;18.38;67.20;101229.09;5090859;28;20007;-80
2022/09/06 01:13:51;;;;;;;;;;;;;;;18.45;67.27;101227.91;5090092;28;20498;-79
2022/09/06 01:16:16;;;;;;;;;;;;;;;18.46;68.19;101231.41;5089076;28;20383;-80
2022/09/06 01:18:48;;;;;;;;;;;;;;;18.47;68.41;101227.84;5074488;28;19971;-80
2022/09/06 01:21:16;;;;;;;;;;;;;;;18.51;67.41;101234.69;5094068;28;19915;-79
2022/09/06 01:23:50;;;;;;;;;;;;;;;18.51;68.70;101234.69;5099152;28;19924;-79
2022/09/06 01:26:33;;;;;;;;;;;;;;;18.52;67.88;101231.97;5090201;28;19927;-79
2022/09/06 01:28:59;;;;;;;;;;;;;;;18.52;68.08;101228.50;5071653;28;19916;-80
2022/09/06 01:31:37;;;;;;;;;;;;;;;18.47;69.44;101227.84;5072172;28;19923;-79
2022/09/06 01:34:03;;;;;;;;;;;;;;;18.54;68.16;101226.66;5089941;28;20046;-80
2022/09/06 01:36:32;;;;;;;;;;;;;;;18.55;68.79;101225.72;5093247;28;20022;-80
2022/09/06 01:38:58;;;;;;;;;;;;;;;18.46;68.45;101210.34;5095994;28;19916;-79
2022/09/06 01:41:23;;;;;;;;;;;;;;;18.50;68.48;101211.94;5088564;28;20365;-79
2022/09/06 01:43:50;;;;;;;;;;;;;;;18.52;67.85;101212.69;5071999;28;20007;-80
2022/09/06 01:46:24;;;;;;;;;;;;;;;18.51;68.22;101211.84;5090053;28;19931;-79
2022/09/06 01:49:01;;;;;;;;;;;;;;;18.50;68.27;101210.16;5088821;28;19938;-80
2022/09/06 01:51:45;;;;;;;;;;;;;;;18.53;67.63;101203.91;5090060;28;19923;-79
2022/09/06 01:54:16;;;;;;;;;;;;;;;18.50;67.93;101188.25;5089958;28;19930;-79
2022/09/06 01:57:11;;;;;;;;;;;;;;;18.49;67.13;101178.66;5091233;28;20384;-80
2022/09/06 01:59:46;;;;;;;;;;;;;;;18.50;67.39;101190.88;5072806;28;19988;-79
2022/09/06 02:02:31;;;;;;;;;;;;;;;18.48;67.39;101200.63;5089553;28;19931;-79
2022/09/06 02:05:26;;;;;;;;;;;;;;;18.50;67.85;101204.03;5078439;28;19916;-79
2022/09/06 02:07:55;;;;;;;;;;;;;;;18.45;69.68;101206.88;5058824;28;20538;-80
2022/09/06 02:10:27;;;;;;;;;;;;;;;18.47;68.81;101206.81;5089472;28;19927;-79
2022/09/06 02:12:56;;;;;;;;;;;;;;;18.47;69.13;101207.66;5089789;28;19963;-79
2022/09/06 02:15:33;;;;;;;;;;;;;;;18.42;69.13;101185.94;5088742;28;19920;-79
2022/09/06 02:18:05;;;;;;;;;;;;;;;18.44;68.11;101167.47;5088424;28;20002;-79
2022/09/06 02:20:32;;;;;;;;;;;;;;;18.44;68.05;101164.84;5080174;28;19912;-79
2022/09/06 02:23:00;;;;;;;;;;;;;;;18.45;68.20;101169.19;5070991;28;19924;-80
2022/09/06 02:25:32;;;;;;;;;;;;;;;18.45;69.08;101190.22;5071767;28;19920;-79
2022/09/06 02:27:58;;;;;;;;;;;;;;;18.41;69.49;101218.44;5088728;28;20450;-79
2022/09/06 02:30:23;;;;;;;;;;;;;;;18.41;69.46;101242.13;5088445;28;19916;-80
2022/09/06 02:32:52;;;;;;;;;;;;;;;18.41;69.07;101228.97;5089975;28;20357;-79
2022/09/06 02:35:17;;;;;;;;;;;;;;;18.42;69.43;101228.03;5089548;28;20004;-79
2022/09/06 02:37:43;;;;;;;;;;;;;;;18.40;69.79;101235.13;5099642;28;19999;-80
2022/09/06 02:40:09;;;;;;;;;;;;;;;18.40;69.16;101231.66;5089020;28;19965;-79
2022/09/06 02:42:34;;;;;;;;;;;;;;;18.40;69.54;101223.75;5089762;28;19927;-80
2022/09/06 02:44:59;;;;;;;;;;;;;;;18.37;70.43;101218.63;5071374;28;19923;-79
2022/09/06 02:47:25;;;;;;;;;;;;;;;18.41;70.11;101212.31;5075304;28;19916;-80
2022/09/06 02:49:50;;;;;;;;;;;;;;;18.39;70.38;101222.06;5093375;28;19920;-79
2022/09/06 02:52:16;;;;;;;;;;;;;;;18.35;70.37;101216.09;5092784;28;19927;-79
2022/09/06 02:54:41;;;;;;;;;;;;;;;18.32;70.83;101210.13;5093163;28;19927;-80
2022/09/06 02:57:06;;;;;;;;;;;;;;;18.33;70.36;101199.53;5092889;28;19939;-80
2022/09/06 02:59:32;;;;;;;;;;;;;;;18.35;70.33;101197.69;5093601;28;19912;-79
2022/09/06 03:01:57;;;;;;;;;;;;;;;18.35;70.07;101186.31;5078059;28;19920;-79
2022/09/06 03:04:23;;;;;;;;;;;;;;;18.32;70.91;101186.44;5092648;28;19920;-80
2022/09/06 03:06:48;;;;;;;;;;;;;;;18.31;70.57;101188.22;5078236;28;19920;-80
2022/09/06 03:09:13;;;;;;;;;;;;;;;18.28;70.90;101179.59;5074702;28;19916;-79
2022/09/06 03:11:39;;;;;;;;;;;;;;;18.24;71.05;101178.06;5092568;28;19928;-79
2022/09/06 03:14:04;;;;;;;;;;;;;;;18.25;71.20;101183.25;5092672;28;20370;-79
2022/09/06 03:16:30;;;;;;;;;;;;;;;18.22;71.62;101188.63;5074093;28;19917;-79
2022/09/06 03:18:55;;;;;;;;;;;;;;;18.20;71.40;101179.97;5091732;28;19927;-79
2022/09/06 03:21:20;;;;;;;;;;;;;;;18.18;71.66;101178.34;5094241;28;19916;-79
2022/09/06 03:23:46;;;;;;;;;;;;;;;18.16;71.88;101179.25;5093256;28;19923;-80
2022/09/06 03:26:11;;;;;;;;;;;;;;;18.18;71.64;101172.13;5093646;28;20371;-80
2022/09/06 03:28:36;;;;;;;;;;;;;;;18.16;71.41;101171.38;5075153;28;19916;-79
2022/09/06 03:31:02;;;;;;;;;;;;;;;18.13;70.75;101165.38;5091519;28;19931;-79
2022/09/06 03:33:27;;;;;;;;;;;;;;;18.09;69.82;101162.03;5092021;28;19920;-79
2022/09/06 03:35:54;;;;;;;;;;;;;;;18.09;70.39;101167.31;5092306;28;19919;-79
2022/09/06 03:38:20;;;;;;;;;;;;;;;18.06;70.16;101171.88;5103983;28;20369;-80
2022/09/06 03:40:46;;;;;;;;;;;;;;;18.02;70.24;101163.25;5093099;28;19926;-80
2022/09/06 03:43:12;;;;;;;;;;;;;;;18.03;70.30;101164.13;5092063;28;19924;-79
2022/09/06 03:45:37;;;;;;;;;;;;;;;17.97;70.36;101162.63;5091320;28;19962;-79
2022/09/06 03:48:02;;;;;;;;;;;;;;;17.96;70.45;101162.69;5091229;28;19919;-79
2022/09/06 03:50:27;;;;;;;;;;;;;;;17.95;70.16;101163.59;5092436;28;19919;-80
2022/09/06 03:52:53;;;;;;;;;;;;;;;17.97;69.78;101161.78;5091783;28;20533;-79
2022/09/06 03:55:18;;;;;;;;;;;;;;;17.98;69.87;101166.94;5080563;28;20384;-79
2022/09/06 03:57:43;;;;;;;;;;;;;;;17.91;70.08;101168.16;5090642;28;19916;-79
2022/09/06 04:00:09;;;;;;;;;;;;;;;17.87;70.24;101155.22;5091536;28;19916;-79
2022/09/06 04:02:34;;;;;;;;;;;;;;;17.82;70.07;101160.69;5091594;28;20376;-80
2022/09/06 04:04:59;;;;;;;;;;;;;;;17.83;70.39;101151.03;5091681;28;19963;-79
2022/09/06 04:07:25;;;;;;;;;;;;;;;17.79;70.43;101158.19;5093552;28;20315;-79
2022/09/06 04:09:50;;;;;;;;;;;;;;;17.80;70.57;101151.19;5098825;28;19928;-80
2022/09/06 04:12:15;;;;;;;;;;;;;;;17.80;70.68;101152.00;5073734;28;19938;-80
2022/09/06 04:14:40;;;;;;;;;;;;;;;17.77;70.62;101139.00;5092510;28;19919;-79
2022/09/06 04:17:06;;;;;;;;;;;;;;;17.77;70.15;101143.44;5094378;28;19920;-80
2022/09/06 04:19:34;;;;;;;;;;;;;;;17.70;70.29;101136.72;5097606;28;20427;-80
2022/09/06 04:21:59;;;;;;;;;;;;;;;17.74;70.24;101138.31;5074636;28;19920;-79
2022/09/06 04:24:24;;;;;;;;;;;;;;;17.74;70.41;101135.69;5091489;28;20443;-79
2022/09/06 04:26:50;;;;;;;;;;;;;;;17.72;70.27;101137.50;5091876;28;19916;-79
2022/09/06 04:29:15;;;;;;;;;;;;;;;17.68;70.10;101136.78;5091581;28;20049;-79
2022/09/06 04:31:40;;;;;;;;;;;;;;;17.66;70.16;101143.88;5090373;28;20431;-79
2022/09/06 04:34:06;;;;;;;;;;;;;;;17.67;70.31;101152.63;5091262;28;19916;-79
2022/09/06 04:36:31;;;;;;;;;;;;;;;17.67;70.34;101156.13;5094572;28;19916;-79
2022/09/06 04:38:56;;;;;;;;;;;;;;;17.65;70.31;101157.94;5098948;28;19920;-79
2022/09/06 04:41:21;;;;;;;;;;;;;;;17.65;70.31;101160.56;5072796;28;20011;-79
2022/09/06 04:43:47;;;;;;;;;;;;;;;17.59;70.39;101153.81;5090322;28;19927;-79
2022/09/06 04:46:16;;;;;;;;;;;;;;;17.63;70.70;101151.91;5072749;28;19957;-79
2022/09/06 04:48:41;;;;;;;;;;;;;;;17.62;70.54;101151.97;5088449;28;19970;-79
2022/09/06 04:51:06;;;;;;;;;;;;;;;17.67;69.99;101145.59;5090876;28;19943;-79
2022/09/06 04:53:32;;;;;;;;;;;;;;;17.63;70.22;101143.16;5092643;28;19946;-79
2022/09/06 04:55:57;;;;;;;;;;;;;;;17.55;70.56;101139.09;5091752;28;19977;-79
2022/09/06 04:58:22;;;;;;;;;;;;;;;17.56;70.55;101143.41;5091171;28;19916;-79
2022/09/06 05:00:48;;;;;;;;;;;;;;;17.54;69.76;101147.00;5089939;28;20352;-79
2022/09/06 05:03:13;;;;;;;;;;;;;;;17.59;69.73;101153.81;5071224;28;19920;-79
2022/09/06 05:05:38;;;;;;;;;;;;;;;17.61;69.46;101148.50;5080337;28;19961;-79
2022/09/06 05:08:04;;;;;;;;;;;;;;;17.55;69.46;101159.25;5101762;28;19915;-79
2022/09/06 05:10:29;;;;;;;;;;;;;;;17.55;69.53;101148.72;5092526;28;19920;-79
2022/09/06 05:12:55;;;;;;;;;;;;;;;17.55;69.76;101159.25;5090735;28;19916;-79
2022/09/06 05:15:20;;;;;;;;;;;;;;;17.54;70.09;101158.38;5072182;28;20390;-79
2022/09/06 05:17:46;;;;;;;;;;;;;;;17.48;69.92;101166.53;5089912;28;20420;-79
2022/09/06 05:20:12;;;;;;;;;;;;;;;17.48;69.93;101169.16;5098722;28;19919;-80
2022/09/06 05:22:38;;;;;;;;;;;;;;;17.50;69.88;101167.31;5080758;28;20013;-80
2022/09/06 05:25:03;;;;;;;;;;;;;;;17.49;69.88;101159.50;5090226;28;20015;-79
2022/09/06 05:27:28;;;;;;;;;;;;;;;17.55;69.77;101160.09;5090562;28;19916;-79
2022/09/06 05:29:53;;;;;;;;;;;;;;;17.52;70.03;101169.88;5090151;28;19916;-79
2022/09/06 05:32:19;;;;;;;;;;;;;;;17.54;70.37;101171.50;5091013;28;20395;-80
2022/09/06 05:34:44;;;;;;;;;;;;;;;17.54;70.43;101168.03;5072049;28;19915;-79
2022/09/06 05:37:09;;;;;;;;;;;;;;;17.55;70.20;101169.75;5099212;28;19938;-80
2022/09/06 05:39:35;;;;;;;;;;;;;;;17.57;70.03;101163.50;5090639;28;19927;-79
2022/09/06 05:42:05;;;;;;;;;;;;;;;17.56;70.28;101166.22;5091898;28;20007;-79
2022/09/06 05:44:30;;;;;;;;;;;;;;;17.54;69.59;101163.63;5072598;28;19920;-79
2022/09/06 05:46:56;;;;;;;;;;;;;;;17.56;70.28;101164.41;5090464;28;19920;-79
2022/09/06 05:49:21;;;;;;;;;;;;;;;17.57;70.50;101170.53;5055502;28;19916;-79
2022/09/06 05:51:49;;;;;;;;;;;;;;;17.58;70.38;101167.00;5090652;28;20289;-79
2022/09/06 05:54:14;;;;;;;;;;;;;;;17.65;70.29;101165.00;5089956;28;19916;-79
2022/09/06 05:56:39;;;;;;;;;;;;;;;17.65;70.47;101163.19;5090742;28;19916;-79
2022/09/06 05:59:05;;;;;;;;;;;;;;;17.66;70.93;101161.41;5089231;28;19932;-79
2022/09/06 06:01:30;;;;;;;;;;;;;;;17.63;71.09;101159.78;5092797;28;19941;-79
2022/09/06 06:03:56;;;;;;;;;;;;;;;17.66;71.43;101167.53;5097282;28;19920;-79
2022/09/06 06:06:22;;;;;;;;;;;;;;;17.66;71.33;101162.28;5089869;28;19916;-79
2022/09/06 06:08:47;;;;;;;;;;;;;;;17.69;71.41;101171.78;5090415;28;19912;-79
2022/09/06 06:11:12;;;;;;;;;;;;;;;17.71;71.21;101162.91;5071758;28;20440;-79
2022/09/06 06:13:38;;;;;;;;;;;;;;;17.74;70.89;101170.66;5071450;28;19923;-79
2022/09/06 06:16:07;;;;;;;;;;;;;;;17.77;71.17;101167.06;5089816;28;19962;-79
2022/09/06 06:18:33;;;;;;;;;;;;;;;17.76;70.80;101168.84;5095773;28;19959;-79
2022/09/06 06:21:07;;;;;;;;;;;;;;;17.74;71.31;101173.28;5091840;28;20004;-79
2022/09/06 06:23:33;;;;;;;;;;;;;;;17.76;71.23;101173.25;5095457;28;20496;-80
2022/09/06 06:25:58;;;;;;;;;;;;;;;17.78;70.94;101172.25;5094080;28;19916;-79
2022/09/06 06:28:23;;;;;;;;;;;;;;;17.83;70.90;101172.06;5075596;28;19916;-80
2022/09/06 06:30:48;;;;;;;;;;;;;;;17.84;70.86;101181.63;5093845;28;20342;-79
2022/09/06 06:33:17;;;;;;;;;;;;;;;17.86;70.37;101182.41;5093655;28;19916;-79
2022/09/06 06:35:54;;;;;;;;;;;;;;;17.90;70.38;101176.09;5075975;28;20436;-80
2022/09/06 06:38:20;;;;;;;;;;;;;;;17.89;70.39;101174.38;5104418;28;19916;-79
2022/09/06 06:40:45;;;;;;;;;;;;;;;17.92;70.14;101176.88;5094193;28;19920;-79
2022/09/06 06:43:10;;;;;;;;;;;;;;;17.92;70.50;101171.63;5093309;28;20629;-79
2022/09/06 06:45:36;;;;;;;;;;;;;;;17.95;70.45;101174.09;5092265;28;19925;-79
2022/09/06 06:48:01;;;;;;;;;;;;;;;17.94;70.84;101172.44;5093151;28;19942;-79
2022/09/06 06:50:26;;;;;;;;;;;;;;;17.98;70.53;101169.56;5092568;28;20006;-79
2022/09/06 06:52:53;;;;;;;;;;;;;;;17.97;70.52;101173.16;5093186;28;20283;-79
2022/09/06 06:55:18;;;;;;;;;;;;;;;18.03;69.30;101169.38;5092596;28;19920;-79
2022/09/06 06:57:43;;;;;;;;;;;;;;;18.04;69.51;101171.94;5094647;28;19920;-79
2022/09/06 07:00:09;;;;;;;;;;;;;;;18.05;69.17;101176.28;5079331;28;19924;-79
2022/09/06 07:02:35;;;;;;;;;;;;;;;18.07;69.04;101171.78;5075280;28;19965;-79
2022/09/06 07:05:00;;;;;;;;;;;;;;;18.08;69.42;101176.13;5093080;28;19939;-80
2022/09/06 07:07:25;;;;;;;;;;;;;;;18.09;68.71;101175.19;5093030;28;20377;-79
2022/09/06 07:09:51;;;;;;;;;;;;;;;18.15;68.16;101174.91;5074121;28;20347;-79
2022/09/06 07:12:16;;;;;;;;;;;;;;;18.18;67.67;101184.47;5074733;28;19920;-79
2022/09/06 07:14:42;;;;;;;;;;;;;;;18.20;67.54;101171.22;5092378;28;20384;-79
2022/09/06 07:17:07;;;;;;;;;;;;;;;18.20;67.08;101165.97;5091623;28;19990;-79
2022/09/06 07:19:32;;;;;;;;;;;;;;;18.25;67.03;101166.59;5092224;28;19916;-79
2022/09/06 07:21:57;;;;;;;;;;;;;;;18.24;67.36;101165.78;5092631;28;19995;-79
2022/09/06 07:24:23;;;;;;;;;;;;;;;18.25;67.53;101164.84;5083610;28;19923;-79
2022/09/06 07:26:48;;;;;;;;;;;;;;;18.25;67.58;101156.94;5075442;28;19935;-80
2022/09/06 07:29:13;;;;;;;;;;;;;;;18.27;67.71;101157.75;5074370;28;19920;-79
2022/09/06 07:31:38;;;;;;;;;;;;;;;18.28;67.47;101151.53;5092129;28;19985;-80
2022/09/06 07:34:07;;;;;;;;;;;;;;;18.28;67.99;101162.06;5092399;28;19916;-79
2022/09/06 07:36:32;;;;;;;;;;;;;;;18.30;67.73;101160.22;5094248;28;19915;-79
2022/09/06 07:38:57;;;;;;;;;;;;;;;18.35;67.67;101152.09;5081908;28;20403;-79
2022/09/06 07:41:23;;;;;;;;;;;;;;;18.33;67.35;101152.19;5097905;28;19916;-79
2022/09/06 07:43:53;;;;;;;;;;;;;;;18.39;66.24;101151.88;5092288;28;19924;-79
2022/09/06 07:46:18;;;;;;;;;;;;;;;18.43;66.50;101157.84;5091359;28;19938;-79
2022/09/06 07:48:44;;;;;;;;;;;;;;;18.44;66.21;101151.69;5072822;28;20372;-79
2022/09/06 07:51:11;;;;;;;;;;;;;;;18.45;65.97;101149.00;5093165;28;20110;-79
2022/09/06 07:53:37;;;;;;;;;;;;;;;18.45;66.01;101150.75;5098145;28;19966;-79
2022/09/06 07:56:04;;;;;;;;;;;;;;;18.48;65.82;101151.47;5094458;28;19920;-79
2022/09/06 07:58:29;;;;;;;;;;;;;;;18.53;65.20;101152.13;5078177;28;19916;-79
2022/09/06 08:01:13;;;;;;;;;;;;;;;18.52;65.09;101150.41;5091494;28;19993;-80
2022/09/06 08:03:39;;;;;;;;;;;;;;;18.52;65.76;101154.81;5091387;28;19920;-80
2022/09/06 08:06:04;;;;;;;;;;;;;;;18.54;65.54;101150.38;5092167;28;19942;-79
2022/09/06 08:08:30;;;;;;;;;;;;;;;18.55;65.13;101149.41;5091362;28;19916;-79
2022/09/06 08:10:55;;;;;;;;;;;;;;;18.60;65.37;101147.44;5085028;28;20381;-80
2022/09/06 08:13:20;;;;;;;;;;;;;;;18.57;65.23;101144.94;5077757;28;20389;-79
2022/09/06 08:15:45;;;;;;;;;;;;;;;18.59;65.27;101140.47;5072992;28;20042;-79
2022/09/06 08:18:11;;;;;;;;;;;;;;;18.60;64.86;101139.53;5071724;28;20361;-79
2022/09/06 08:20:36;;;;;;;;;;;;;;;18.62;64.76;101146.44;5072935;28;19917;-79
2022/09/06 08:23:01;;;;;;;;;;;;;;;18.62;65.13;101146.44;5042666;28;20300;-79
2022/09/06 08:25:26;;;;;;;;;;;;;;;18.60;66.08;101144.81;5091463;28;19965;-79
2022/09/06 08:27:53;;;;;;;;;;;;;;;18.59;66.05;101143.09;5091463;28;19924;-79
2022/09/06 08:30:19;;;;;;;;;;;;;;;18.57;65.85;101151.03;5090595;28;19922;-80
2022/09/06 08:32:44;;;;;;;;;;;;;;;18.70;64.32;101141.63;5092022;28;20010;-80
2022/09/06 08:35:09;;;;;;;;;;;;;;;18.71;64.21;101142.50;5091200;28;19927;-79
2022/09/06 08:37:35;;;;;;;;;;;;;;;18.73;64.16;101134.50;5090601;28;20018;-79
2022/09/06 08:40:00;;;;;;;;;;;;;;;18.61;65.57;101135.97;5090186;28;19916;-80
2022/09/06 08:42:25;;;;;;;;;;;;;;;18.66;65.51;101140.06;5096059;28;19924;-79
2022/09/06 08:44:51;;;;;;;;;;;;;;;18.66;66.13;101142.72;5053104;28;19916;-79
2022/09/06 08:47:18;;;;;;;;;;;;;;;18.68;64.60;101140.00;5082982;28;19916;-79
2022/09/06 08:49:45;;;;;;;;;;;;;;;18.68;64.40;101138.25;5102355;28;20296;-79
2022/09/06 08:52:13;;;;;;;;;;;;;;;18.71;64.32;101134.59;5096477;28;19916;-79
2022/09/06 08:54:57;;;;;;;;;;;;;;;18.69;64.80;101128.53;5090872;28;19922;-79
2022/09/06 08:57:42;;;;;;;;;;;;;;;18.72;65.32;101130.19;5088096;28;19920;-79
2022/09/06 09:00:12;;;;;;;;;;;;;;;18.73;64.32;101119.59;5072990;28;19912;-79
2022/09/06 09:02:41;;;;;;;;;;;;;;;18.73;64.35;101116.09;5091487;28;19951;-80
2022/09/06 09:05:12;;;;;;;;;;;;;;;18.66;65.31;101112.91;5090309;28;19923;-79
2022/09/06 09:07:56;;;;;;;;;;;;;;;18.68;65.56;101111.06;5090841;28;20002;-79
2022/09/06 09:10:28;;;;;;;;;;;;;;;18.72;65.03;101109.16;5082163;28;19920;-80
2022/09/06 09:12:54;;;;;;;;;;;;;;;18.70;65.58;101114.47;5090428;28;19991;-79
2022/09/06 09:15:19;;;;;;;;;;;;;;;18.76;64.79;101108.91;5090444;28;20420;-79
2022/09/06 09:17:49;;;;;;;;;;;;;;;18.74;63.94;101108.13;5087937;28;19931;-79
2022/09/06 09:20:15;;;;;;;;;;;;;;;18.70;64.57;101114.47;5097104;28;19962;-80
2022/09/06 09:22:40;;;;;;;;;;;;;;;18.69;65.08;101110.13;5090838;28;19926;-80
2022/09/06 09:25:06;;;;;;;;;;;;;;;18.85;64.08;101105.81;5089355;28;19959;-80
2022/09/06 09:27:32;;;;;;;;;;;;;;;18.77;64.85;101109.75;5090111;28;20380;-79
2022/09/06 09:30:02;;;;;;;;;;;;;;;18.81;64.50;101109.53;5090626;28;19922;-79
2022/09/06 09:32:31;;;;;;;;;;;;;;;18.80;64.61;101102.56;5090117;28;19959;-79
2022/09/06 09:35:15;;;;;;;;;;;;;;;18.86;63.76;101093.50;5089761;28;20282;-79
2022/09/06 09:37:41;;;;;;;;;;;;;;;18.90;64.04;101089.78;5101747;28;19930;-79
2022/09/06 09:40:11;;;;;;;;;;;;;;;18.85;64.34;101090.03;5089110;28;20027;-80
2022/09/06 09:42:37;;;;;;;;;;;;;;;18.76;64.89;101077.31;5094521;28;19920;-79
2022/09/06 09:45:26;;;;;;;;;;;;;;;18.85;64.42;101076.00;5089544;28;20400;-80
2022/09/06 09:47:51;;;;;;;;;;;;;;;18.85;63.96;101071.59;5079133;28;20272;-80
2022/09/06 09:50:34;;;;;;;;;;;;;;;18.86;63.94;101070.69;5060186;28;19917;-80
2022/09/06 09:53:12;;;;;;;;;;;;;;;18.93;64.06;101064.16;5077967;28;19923;-80
2022/09/06 09:55:38;;;;;;;;;;;;;;;18.78;64.77;101064.94;5092804;28;19969;-79
2022/09/06 09:58:05;;;;;;;;;;;;;;;18.75;64.75;101065.06;5093083;28;20011;-80
2022/09/06 10:00:35;;;;;;;;;;;;;;;18.80;64.75;101068.34;5093118;28;19963;-79
2022/09/06 10:03:10;;;;;;;;;;;;;;;18.89;64.39;101073.16;5094503;28;19954;-80
2022/09/06 10:05:35;;;;;;;;;;;;;;;18.84;64.85;101064.63;5094098;28;19916;-80
2022/09/06 10:08:00;;;;;;;;;;;;;;;18.78;64.71;101064.09;5094289;28;19916;-80
2022/09/06 10:10:27;;;;;;;;;;;;;;;18.75;64.68;101051.09;5075776;28;20446;-80
2022/09/06 10:13:11;;;;;;;;;;;;;;;18.98;62.84;101054.25;5094154;28;19927;-80
2022/09/06 10:15:38;;;;;;;;;;;;;;;18.87;64.49;101059.19;5093410;28;19951;-79
2022/09/06 10:18:03;;;;;;;;;;;;;;;18.93;64.01;101052.75;5074098;28;19916;-80
2022/09/06 10:20:42;;;;;;;;;;;;;;;18.96;63.74;101053.47;5102271;28;19916;-79
2022/09/06 10:23:13;;;;;;;;;;;;;;;19.19;61.85;101052.31;5058742;28;19920;-80
2022/09/06 10:25:45;;;;;;;;;;;;;;;19.27;61.27;101052.75;5093813;28;20396;-79
2022/09/06 10:28:24;;;;;;;;;;;;;;;19.07;62.91;101052.94;5075294;28;19923;-79
2022/09/06 10:30:55;;;;;;;;;;;;;;;18.88;64.35;101060.06;5085248;28;19960;-79
2022/09/06 10:33:28;;;;;;;;;;;;;;;18.87;64.62;101055.75;5093771;28;19923;-79
2022/09/06 10:35:56;;;;;;;;;;;;;;;18.85;64.55;101057.59;5076592;28;20322;-80
2022/09/06 10:38:34;;;;;;;;;;;;;;;18.83;64.70;101054.19;5087814;28;19965;-80
2022/09/06 10:41:18;;;;;;;;;;;;;;;18.87;64.71;101050.47;5097438;28;19919;-80
2022/09/06 10:43:56;;;;;;;;;;;;;;;18.83;64.78;101044.50;5103108;28;19921;-79
2022/09/06 10:46:24;;;;;;;;;;;;;;;18.91;64.26;101030.94;5084767;28;20384;-79
2022/09/06 10:48:51;;;;;;;;;;;;;;;18.93;64.13;101029.94;5094495;28;20384;-80
2022/09/06 10:51:25;;;;;;;;;;;;;;;19.06;63.44;101027.53;5080648;28;19916;-80
2022/09/06 10:54:00;;;;;;;;;;;;;;;18.95;64.10;101020.19;5093938;28;19912;-79
2022/09/06 10:56:28;;;;;;;;;;;;;;;18.91;64.33;101020.41;5093361;28;19920;-80
2022/09/06 10:59:00;;;;;;;;;;;;;;;18.92;64.36;101017.72;5093102;28;20003;-80
2022/09/06 11:01:32;;;;;;;;;;;;;;;18.88;64.90;101010.91;5092796;28;19924;-80
2022/09/06 11:03:58;;;;;;;;;;;;;;;18.83;64.35;101014.69;5091133;28;19963;-80
2022/09/06 11:06:27;;;;;;;;;;;;;;;18.86;64.56;101019.81;5091452;28;19916;-79
2022/09/06 11:09:06;;;;;;;;;;;;;;;18.83;64.60;101015.56;5093642;28;19942;-80
2022/09/06 11:11:34;;;;;;;;;;;;;;;19.13;62.90;101013.13;5092799;28;20349;-79
2022/09/06 11:14:03;;;;;;;;;;;;;;;19.31;62.07;101000.78;5092936;28;19969;-80
2022/09/06 11:16:32;;;;;;;;;;;;;;;18.96;64.14;101002.59;5092407;28;19916;-80
2022/09/06 11:18:57;;;;;;;;;;;;;;;19.19;62.23;101002.25;5096467;28;20430;-80
2022/09/06 11:21:23;;;;;;;;;;;;;;;19.16;63.47;100999.78;5095588;28;19923;-80
2022/09/06 11:23:52;;;;;;;;;;;;;;;19.35;61.12;100989.13;5093104;28;19927;-80
2022/09/06 11:26:18;;;;;;;;;;;;;;;19.00;63.75;100989.22;5080521;28;19923;-80
2022/09/06 11:28:57;;;;;;;;;;;;;;;18.95;64.05;100993.00;5092660;28;20320;-80
2022/09/06 11:31:22;;;;;;;;;;;;;;;18.96;63.93;100997.31;5074281;28;19973;-79
2022/09/06 11:33:48;;;;;;;;;;;;;;;18.95;64.42;100988.59;5091349;28;20262;-79
2022/09/06 11:36:29;;;;;;;;;;;;;;;19.05;63.52;100995.06;5091855;28;19916;-79
2022/09/06 11:38:56;;;;;;;;;;;;;;;18.98;64.28;100984.97;5085591;28;19931;-80
2022/09/06 11:41:26;;;;;;;;;;;;;;;18.91;64.19;100988.81;5094107;28;20356;-80
2022/09/06 11:43:52;;;;;;;;;;;;;;;19.10;63.56;100992.22;5092263;28;19963;-79
2022/09/06 11:46:33;;;;;;;;;;;;;;;18.95;64.13;100993.00;5091194;28;19951;-80
2022/09/06 11:49:01;;;;;;;;;;;;;;;18.95;64.26;100995.66;5091825;28;19956;-79
2022/09/06 11:51:32;;;;;;;;;;;;;;;19.00;64.10;100997.09;5092016;28;19924;-80
2022/09/06 11:53:57;;;;;;;;;;;;;;;18.98;64.24;100987.59;5071435;28;19922;-80
2022/09/06 11:56:23;;;;;;;;;;;;;;;19.00;64.10;100978.69;5096959;28;20002;-80
2022/09/06 11:59:14;;;;;;;;;;;;;;;19.33;62.30;100964.66;5092013;28;19999;-80
2022/09/06 12:01:40;;;;;;;;;;;;;;;19.07;63.89;100974.81;5064789;28;19924;-79
2022/09/06 12:04:06;;;;;;;;;;;;;;;19.02;63.85;100971.53;5091711;28;19919;-79
2022/09/06 12:06:39;;;;;;;;;;;;;;;18.98;64.15;100970.00;5091611;28;20006;-80
2022/09/06 12:09:23;;;;;;;;;;;;;;;18.97;64.22;100968.31;5085153;28;19912;-79
2022/09/06 12:11:50;;;;;;;;;;;;;;;18.96;64.25;100974.50;5092198;28;19939;-80
2022/09/06 12:14:24;;;;;;;;;;;;;;;18.98;64.33;100974.44;5083241;28;19917;-80
2022/09/06 12:16:59;;;;;;;;;;;;;;;18.98;64.21;100969.16;5084831;28;19916;-80
2022/09/06 12:19:43;;;;;;;;;;;;;;;19.00;64.01;100969.91;5091672;28;19916;-80
2022/09/06 12:22:27;;;;;;;;;;;;;;;19.00;64.23;100967.28;5099318;28;19958;-80
2022/09/06 12:24:58;;;;;;;;;;;;;;;19.24;63.05;100964.22;5100171;28;19969;-79
2022/09/06 12:27:23;;;;;;;;;;;;;;;19.07;63.97;100973.94;5100649;28;20590;-80
2022/09/06 12:29:54;;;;;;;;;;;;;;;19.01;64.20;100969.84;5101005;28;19912;-80
2022/09/06 12:32:22;;;;;;;;;;;;;;;19.19;63.46;100957.50;5075142;28;20281;-80
2022/09/06 12:34:48;;;;;;;;;;;;;;;19.22;62.86;100959.97;5067466;28;19920;-80
2022/09/06 12:37:13;;;;;;;;;;;;;;;19.14;63.56;100951.59;5074159;28;19927;-79
2022/09/06 12:39:39;;;;;;;;;;;;;;;19.09;63.59;100948.38;5094338;28;19936;-80